sensor_id;sensor_type;location;lat;lon;timestamp;P1;durP1;ratioP1;P2;durP2;ratioP2
64643;SDS011;51056;50.330;7.914;2023-07-20T00:02:44;4.72;;;1.90;;
64643;SDS011;51056;50.330;7.914;2023-07-20T00:05:47;12.27;;;2.92;;
64643;SDS011;51056;50.330;7.914;2023-07-20T00:08:50;9.25;;;2.67;;
64643;SDS011;51056;50.330;7.914;2023-07-20T00:11:54;8.35;;;2.08;;
64643;SDS011;51056;50.330;7.914;2023-07-20T00:14:57;7.35;;;2.05;;
64643;SDS011;51056;50.330;7.914;2023-07-20T00:18:00;5.65;;;2.60;;
64643;SDS011;51056;50.330;7.914;2023-07-20T00:21:04;5.95;;;2.25;;
64643;SDS011;51056;50.330;7.914;2023-07-20T00:24:07;6.47;;;2.15;;
64643;SDS011;51056;50.330;7.914;2023-07-20T00:27:10;5.70;;;2.35;;
64643;SDS011;51056;50.330;7.914;2023-07-20T00:30:14;6.47;;;2.25;;
64643;SDS011;51056;50.330;7.914;2023-07-20T00:33:17;4.65;;;2.10;;
64643;SDS011;51056;50.330;7.914;2023-07-20T00:36:23;7.20;;;2.72;;
64643;SDS011;51056;50.330;7.914;2023-07-20T00:39:27;5.65;;;2.05;;
64643;SDS011;51056;50.330;7.914;2023-07-20T00:42:33;6.80;;;2.42;;
64643;SDS011;51056;50.330;7.914;2023-07-20T00:45:37;5.28;;;2.28;;
64643;SDS011;51056;50.330;7.914;2023-07-20T00:48:40;6.20;;;2.38;;
64643;SDS011;51056;50.330;7.914;2023-07-20T00:51:46;8.77;;;2.13;;
64643;SDS011;51056;50.330;7.914;2023-07-20T00:54:50;8.77;;;2.08;;
64643;SDS011;51056;50.330;7.914;2023-07-20T00:57:55;3.95;;;2.20;;
64643;SDS011;51056;50.330;7.914;2023-07-20T01:00:58;4.35;;;2.15;;
64643;SDS011;51056;50.330;7.914;2023-07-20T01:04:01;6.50;;;2.40;;
64643;SDS011;51056;50.330;7.914;2023-07-20T01:07:13;8.18;;;2.58;;
64643;SDS011;51056;50.330;7.914;2023-07-20T01:13:37;7.93;;;2.28;;
64643;SDS011;51056;50.330;7.914;2023-07-20T01:16:41;8.10;;;2.78;;
64643;SDS011;51056;50.330;7.914;2023-07-20T01:19:44;5.45;;;2.35;;
64643;SDS011;51056;50.330;7.914;2023-07-20T01:33:17;8.48;;;2.53;;
64643;SDS011;51056;50.330;7.914;2023-07-20T01:36:22;4.90;;;2.10;;
64643;SDS011;51056;50.330;7.914;2023-07-20T01:39:27;4.60;;;2.05;;
64643;SDS011;51056;50.330;7.914;2023-07-20T01:42:31;5.38;;;2.35;;
64643;SDS011;51056;50.330;7.914;2023-07-20T01:45:34;5.03;;;2.40;;
64643;SDS011;51056;50.330;7.914;2023-07-20T01:48:37;6.55;;;2.88;;
64643;SDS011;51056;50.330;7.914;2023-07-20T01:51:41;7.25;;;2.35;;
64643;SDS011;51056;50.330;7.914;2023-07-20T01:54:44;6.97;;;2.33;;
64643;SDS011;51056;50.330;7.914;2023-07-20T01:57:47;9.98;;;2.38;;
64643;SDS011;51056;50.330;7.914;2023-07-20T02:00:51;5.90;;;2.35;;
64643;SDS011;51056;50.330;7.914;2023-07-20T02:03:54;4.97;;;2.13;;
64643;SDS011;51056;50.330;7.914;2023-07-20T02:06:57;5.25;;;2.63;;
64643;SDS011;51056;50.330;7.914;2023-07-20T02:10:00;4.18;;;1.77;;
64643;SDS011;51056;50.330;7.914;2023-07-20T02:13:04;8.23;;;2.25;;
64643;SDS011;51056;50.330;7.914;2023-07-20T02:16:07;5.03;;;2.10;;
64643;SDS011;51056;50.330;7.914;2023-07-20T02:19:10;7.10;;;2.40;;
64643;SDS011;51056;50.330;7.914;2023-07-20T02:22:14;8.32;;;2.30;;
64643;SDS011;51056;50.330;7.914;2023-07-20T02:25:17;6.38;;;2.53;;
64643;SDS011;51056;50.330;7.914;2023-07-20T02:28:20;6.38;;;2.47;;
64643;SDS011;51056;50.330;7.914;2023-07-20T02:31:24;7.80;;;2.10;;
64643;SDS011;51056;50.330;7.914;2023-07-20T02:34:27;5.70;;;2.22;;
64643;SDS011;51056;50.330;7.914;2023-07-20T02:37:30;7.18;;;2.78;;
64643;SDS011;51056;50.330;7.914;2023-07-20T02:40:35;3.97;;;1.90;;
64643;SDS011;51056;50.330;7.914;2023-07-20T02:43:39;5.25;;;2.35;;
64643;SDS011;51056;50.330;7.914;2023-07-20T02:46:45;5.50;;;2.10;;
64643;SDS011;51056;50.330;7.914;2023-07-20T02:49:50;7.07;;;2.42;;
64643;SDS011;51056;50.330;7.914;2023-07-20T02:56:21;6.50;;;2.35;;
64643;SDS011;51056;50.330;7.914;2023-07-20T02:59:25;4.15;;;2.40;;
64643;SDS011;51056;50.330;7.914;2023-07-20T03:02:29;4.18;;;2.10;;
64643;SDS011;51056;50.330;7.914;2023-07-20T03:05:32;4.47;;;2.28;;
64643;SDS011;51056;50.330;7.914;2023-07-20T03:08:36;6.20;;;2.72;;
64643;SDS011;51056;50.330;7.914;2023-07-20T03:11:39;4.78;;;2.20;;
64643;SDS011;51056;50.330;7.914;2023-07-20T03:14:43;4.95;;;2.13;;
64643;SDS011;51056;50.330;7.914;2023-07-20T03:17:46;5.72;;;2.60;;
64643;SDS011;51056;50.330;7.914;2023-07-20T03:20:53;5.13;;;2.00;;
64643;SDS011;51056;50.330;7.914;2023-07-20T03:23:56;6.40;;;2.20;;
64643;SDS011;51056;50.330;7.914;2023-07-20T03:27:00;5.00;;;2.20;;
64643;SDS011;51056;50.330;7.914;2023-07-20T03:30:04;5.10;;;2.80;;
64643;SDS011;51056;50.330;7.914;2023-07-20T03:33:10;4.78;;;2.00;;
64643;SDS011;51056;50.330;7.914;2023-07-20T03:36:13;6.18;;;2.67;;
64643;SDS011;51056;50.330;7.914;2023-07-20T03:39:17;5.28;;;2.25;;
64643;SDS011;51056;50.330;7.914;2023-07-20T03:42:20;5.43;;;2.25;;
64643;SDS011;51056;50.330;7.914;2023-07-20T03:45:27;4.63;;;2.35;;
64643;SDS011;51056;50.330;7.914;2023-07-20T03:48:30;4.57;;;2.30;;
64643;SDS011;51056;50.330;7.914;2023-07-20T03:51:34;4.47;;;2.58;;
64643;SDS011;51056;50.330;7.914;2023-07-20T03:54:41;8.13;;;2.25;;
64643;SDS011;51056;50.330;7.914;2023-07-20T03:57:44;6.68;;;2.95;;
64643;SDS011;51056;50.330;7.914;2023-07-20T04:00:48;4.20;;;2.30;;
64643;SDS011;51056;50.330;7.914;2023-07-20T04:03:55;6.53;;;2.85;;
64643;SDS011;51056;50.330;7.914;2023-07-20T04:06:58;7.63;;;2.67;;
64643;SDS011;51056;50.330;7.914;2023-07-20T04:10:08;4.28;;;2.70;;
64643;SDS011;51056;50.330;7.914;2023-07-20T04:13:12;4.93;;;2.53;;
64643;SDS011;51056;50.330;7.914;2023-07-20T04:16:15;4.25;;;2.40;;
64643;SDS011;51056;50.330;7.914;2023-07-20T04:22:47;6.05;;;3.03;;
64643;SDS011;51056;50.330;7.914;2023-07-20T04:25:52;5.18;;;2.30;;
64643;SDS011;51056;50.330;7.914;2023-07-20T04:28:55;5.93;;;2.80;;
64643;SDS011;51056;50.330;7.914;2023-07-20T04:32:11;4.63;;;2.60;;
64643;SDS011;51056;50.330;7.914;2023-07-20T04:39:11;6.53;;;2.72;;
64643;SDS011;51056;50.330;7.914;2023-07-20T04:42:18;6.57;;;2.60;;
64643;SDS011;51056;50.330;7.914;2023-07-20T04:45:26;5.70;;;2.78;;
64643;SDS011;51056;50.330;7.914;2023-07-20T04:48:29;4.25;;;2.13;;
64643;SDS011;51056;50.330;7.914;2023-07-20T04:51:33;6.55;;;2.63;;
64643;SDS011;51056;50.330;7.914;2023-07-20T04:54:37;6.38;;;2.50;;
64643;SDS011;51056;50.330;7.914;2023-07-20T04:57:40;7.65;;;2.75;;
64643;SDS011;51056;50.330;7.914;2023-07-20T05:00:44;12.48;;;2.97;;
64643;SDS011;51056;50.330;7.914;2023-07-20T05:03:49;8.65;;;2.45;;
64643;SDS011;51056;50.330;7.914;2023-07-20T05:06:53;6.20;;;2.28;;
64643;SDS011;51056;50.330;7.914;2023-07-20T05:09:56;7.25;;;2.33;;
64643;SDS011;51056;50.330;7.914;2023-07-20T05:13:00;5.38;;;2.47;;
64643;SDS011;51056;50.330;7.914;2023-07-20T05:16:04;4.55;;;2.70;;
64643;SDS011;51056;50.330;7.914;2023-07-20T05:19:09;6.75;;;2.42;;
64643;SDS011;51056;50.330;7.914;2023-07-20T05:22:13;4.50;;;2.58;;
64643;SDS011;51056;50.330;7.914;2023-07-20T05:25:18;5.28;;;2.72;;
64643;SDS011;51056;50.330;7.914;2023-07-20T05:28:22;4.63;;;2.20;;
64643;SDS011;51056;50.330;7.914;2023-07-20T05:31:26;7.93;;;2.47;;
64643;SDS011;51056;50.330;7.914;2023-07-20T05:34:29;7.60;;;2.50;;
64643;SDS011;51056;50.330;7.914;2023-07-20T05:37:33;5.82;;;2.95;;
64643;SDS011;51056;50.330;7.914;2023-07-20T05:40:40;7.10;;;2.67;;
64643;SDS011;51056;50.330;7.914;2023-07-20T05:43:47;7.45;;;2.65;;
64643;SDS011;51056;50.330;7.914;2023-07-20T05:46:50;6.53;;;2.35;;
64643;SDS011;51056;50.330;7.914;2023-07-20T05:55:03;6.25;;;2.25;;
64643;SDS011;51056;50.330;7.914;2023-07-20T05:58:09;5.53;;;2.05;;
64643;SDS011;51056;50.330;7.914;2023-07-20T06:01:43;6.03;;;2.63;;
64643;SDS011;51056;50.330;7.914;2023-07-20T06:04:47;6.65;;;2.38;;
64643;SDS011;51056;50.330;7.914;2023-07-20T06:07:53;6.03;;;2.63;;
64643;SDS011;51056;50.330;7.914;2023-07-20T06:11:06;7.80;;;3.65;;
64643;SDS011;51056;50.330;7.914;2023-07-20T06:14:09;6.28;;;2.60;;
64643;SDS011;51056;50.330;7.914;2023-07-20T06:17:13;5.50;;;2.58;;
64643;SDS011;51056;50.330;7.914;2023-07-20T06:20:16;7.65;;;2.60;;
64643;SDS011;51056;50.330;7.914;2023-07-20T06:23:20;7.40;;;3.00;;
64643;SDS011;51056;50.330;7.914;2023-07-20T06:26:26;6.75;;;2.63;;
64643;SDS011;51056;50.330;7.914;2023-07-20T06:29:32;5.82;;;2.13;;
64643;SDS011;51056;50.330;7.914;2023-07-20T06:32:36;8.55;;;3.03;;
64643;SDS011;51056;50.330;7.914;2023-07-20T06:35:41;4.57;;;2.22;;
64643;SDS011;51056;50.330;7.914;2023-07-20T06:38:48;6.75;;;2.42;;
64643;SDS011;51056;50.330;7.914;2023-07-20T06:41:51;7.97;;;2.30;;
64643;SDS011;51056;50.330;7.914;2023-07-20T06:44:56;4.22;;;2.05;;
64643;SDS011;51056;50.330;7.914;2023-07-20T06:47:59;7.28;;;2.30;;
64643;SDS011;51056;50.330;7.914;2023-07-20T06:51:03;8.48;;;2.38;;
64643;SDS011;51056;50.330;7.914;2023-07-20T06:54:06;6.38;;;2.10;;
64643;SDS011;51056;50.330;7.914;2023-07-20T06:57:11;6.43;;;2.55;;
64643;SDS011;51056;50.330;7.914;2023-07-20T07:09:02;6.13;;;3.00;;
64643;SDS011;51056;50.330;7.914;2023-07-20T07:12:09;6.40;;;2.50;;
64643;SDS011;51056;50.330;7.914;2023-07-20T07:15:14;5.70;;;3.15;;
64643;SDS011;51056;50.330;7.914;2023-07-20T07:18:17;8.40;;;2.50;;
64643;SDS011;51056;50.330;7.914;2023-07-20T07:21:29;6.07;;;3.03;;
64643;SDS011;51056;50.330;7.914;2023-07-20T07:24:32;9.10;;;3.47;;
64643;SDS011;51056;50.330;7.914;2023-07-20T07:27:36;9.02;;;2.40;;
64643;SDS011;51056;50.330;7.914;2023-07-20T07:30:41;6.40;;;2.33;;
64643;SDS011;51056;50.330;7.914;2023-07-20T07:33:44;9.32;;;3.33;;
64643;SDS011;51056;50.330;7.914;2023-07-20T07:36:48;4.72;;;2.53;;
64643;SDS011;51056;50.330;7.914;2023-07-20T07:39:51;7.13;;;2.42;;
64643;SDS011;51056;50.330;7.914;2023-07-20T07:42:54;8.68;;;2.90;;
64643;SDS011;51056;50.330;7.914;2023-07-20T07:45:58;5.95;;;2.63;;
64643;SDS011;51056;50.330;7.914;2023-07-20T07:49:01;6.03;;;2.53;;
64643;SDS011;51056;50.330;7.914;2023-07-20T07:52:07;8.73;;;2.70;;
64643;SDS011;51056;50.330;7.914;2023-07-20T07:55:10;9.68;;;3.42;;
64643;SDS011;51056;50.330;7.914;2023-07-20T07:58:14;7.22;;;2.88;;
64643;SDS011;51056;50.330;7.914;2023-07-20T08:01:17;5.50;;;2.10;;
64643;SDS011;51056;50.330;7.914;2023-07-20T08:04:21;4.72;;;2.67;;
64643;SDS011;51056;50.330;7.914;2023-07-20T08:07:25;10.85;;;2.92;;
64643;SDS011;51056;50.330;7.914;2023-07-20T08:10:28;5.40;;;2.35;;
64643;SDS011;51056;50.330;7.914;2023-07-20T08:13:31;8.07;;;2.80;;
64643;SDS011;51056;50.330;7.914;2023-07-20T08:16:38;5.60;;;2.20;;
64643;SDS011;51056;50.330;7.914;2023-07-20T08:19:51;7.47;;;2.38;;
64643;SDS011;51056;50.330;7.914;2023-07-20T08:22:55;6.22;;;2.40;;
64643;SDS011;51056;50.330;7.914;2023-07-20T08:26:06;5.05;;;1.73;;
64643;SDS011;51056;50.330;7.914;2023-07-20T08:29:09;4.25;;;2.25;;
64643;SDS011;51056;50.330;7.914;2023-07-20T08:32:12;5.90;;;2.65;;
64643;SDS011;51056;50.330;7.914;2023-07-20T08:35:20;6.18;;;2.50;;
64643;SDS011;51056;50.330;7.914;2023-07-20T08:38:27;8.48;;;1.83;;
64643;SDS011;51056;50.330;7.914;2023-07-20T08:41:30;5.70;;;2.03;;
64643;SDS011;51056;50.330;7.914;2023-07-20T08:44:33;6.45;;;1.80;;
64643;SDS011;51056;50.330;7.914;2023-07-20T08:47:38;6.68;;;2.40;;
64643;SDS011;51056;50.330;7.914;2023-07-20T08:50:43;6.22;;;2.20;;
64643;SDS011;51056;50.330;7.914;2023-07-20T08:53:49;8.80;;;1.95;;
64643;SDS011;51056;50.330;7.914;2023-07-20T08:56:56;5.63;;;1.52;;
64643;SDS011;51056;50.330;7.914;2023-07-20T09:00:03;4.13;;;1.65;;
64643;SDS011;51056;50.330;7.914;2023-07-20T09:03:11;3.75;;;1.30;;
64643;SDS011;51056;50.330;7.914;2023-07-20T09:06:15;7.38;;;2.00;;
64643;SDS011;51056;50.330;7.914;2023-07-20T09:09:19;5.00;;;1.60;;
64643;SDS011;51056;50.330;7.914;2023-07-20T09:12:22;8.07;;;1.90;;
64643;SDS011;51056;50.330;7.914;2023-07-20T09:15:25;5.40;;;1.30;;
64643;SDS011;51056;50.330;7.914;2023-07-20T09:18:29;3.15;;;1.08;;
64643;SDS011;51056;50.330;7.914;2023-07-20T09:21:33;2.75;;;1.15;;
64643;SDS011;51056;50.330;7.914;2023-07-20T09:28:53;5.47;;;1.30;;
64643;SDS011;51056;50.330;7.914;2023-07-20T09:32:49;4.45;;;1.20;;
64643;SDS011;51056;50.330;7.914;2023-07-20T09:36:01;4.45;;;1.13;;
64643;SDS011;51056;50.330;7.914;2023-07-20T09:39:05;6.25;;;1.05;;
64643;SDS011;51056;50.330;7.914;2023-07-20T09:42:08;4.38;;;1.20;;
64643;SDS011;51056;50.330;7.914;2023-07-20T09:45:34;3.78;;;1.25;;
64643;SDS011;51056;50.330;7.914;2023-07-20T09:48:51;4.35;;;1.25;;
64643;SDS011;51056;50.330;7.914;2023-07-20T09:51:57;3.42;;;1.42;;
64643;SDS011;51056;50.330;7.914;2023-07-20T09:55:03;3.70;;;1.73;;
64643;SDS011;51056;50.330;7.914;2023-07-20T09:58:07;2.20;;;1.00;;
64643;SDS011;51056;50.330;7.914;2023-07-20T10:01:11;4.55;;;1.48;;
64643;SDS011;51056;50.330;7.914;2023-07-20T10:04:19;2.92;;;0.98;;
64643;SDS011;51056;50.330;7.914;2023-07-20T10:07:25;6.75;;;1.08;;
64643;SDS011;51056;50.330;7.914;2023-07-20T10:10:33;5.53;;;1.17;;
64643;SDS011;51056;50.330;7.914;2023-07-20T10:13:38;7.03;;;1.85;;
64643;SDS011;51056;50.330;7.914;2023-07-20T10:16:51;2.97;;;1.10;;
64643;SDS011;51056;50.330;7.914;2023-07-20T10:20:00;4.47;;;0.95;;
64643;SDS011;51056;50.330;7.914;2023-07-20T10:23:13;3.70;;;1.35;;
64643;SDS011;51056;50.330;7.914;2023-07-20T10:26:17;4.63;;;1.10;;
64643;SDS011;51056;50.330;7.914;2023-07-20T10:29:20;3.70;;;1.13;;
64643;SDS011;51056;50.330;7.914;2023-07-20T10:32:29;7.85;;;1.20;;
64643;SDS011;51056;50.330;7.914;2023-07-20T10:35:52;3.70;;;1.10;;
64643;SDS011;51056;50.330;7.914;2023-07-20T10:39:33;4.05;;;1.00;;
64643;SDS011;51056;50.330;7.914;2023-07-20T10:43:28;3.38;;;1.17;;
64643;SDS011;51056;50.330;7.914;2023-07-20T10:46:33;5.40;;;1.13;;
64643;SDS011;51056;50.330;7.914;2023-07-20T10:49:57;4.57;;;0.70;;
64643;SDS011;51056;50.330;7.914;2023-07-20T10:53:13;4.80;;;1.00;;
64643;SDS011;51056;50.330;7.914;2023-07-20T10:56:19;4.93;;;0.90;;
64643;SDS011;51056;50.330;7.914;2023-07-20T11:02:41;3.92;;;1.08;;
64643;SDS011;51056;50.330;7.914;2023-07-20T11:05:45;3.47;;;1.02;;
64643;SDS011;51056;50.330;7.914;2023-07-20T11:12:17;3.45;;;1.10;;
64643;SDS011;51056;50.330;7.914;2023-07-20T11:15:22;4.78;;;1.30;;
64643;SDS011;51056;50.330;7.914;2023-07-20T11:18:27;4.22;;;1.60;;
64643;SDS011;51056;50.330;7.914;2023-07-20T11:21:35;3.03;;;1.00;;
64643;SDS011;51056;50.330;7.914;2023-07-20T11:24:40;4.50;;;0.80;;
64643;SDS011;51056;50.330;7.914;2023-07-20T11:27:47;3.72;;;1.00;;
64643;SDS011;51056;50.330;7.914;2023-07-20T11:30:52;4.82;;;1.30;;
64643;SDS011;51056;50.330;7.914;2023-07-20T11:33:58;3.53;;;1.05;;
64643;SDS011;51056;50.330;7.914;2023-07-20T11:37:01;2.95;;;1.23;;
64643;SDS011;51056;50.330;7.914;2023-07-20T11:40:08;2.30;;;0.82;;
64643;SDS011;51056;50.330;7.914;2023-07-20T11:43:18;3.67;;;1.00;;
64643;SDS011;51056;50.330;7.914;2023-07-20T11:46:24;6.60;;;1.10;;
64643;SDS011;51056;50.330;7.914;2023-07-20T11:49:27;3.65;;;1.48;;
64643;SDS011;51056;50.330;7.914;2023-07-20T11:52:31;5.72;;;1.10;;
64643;SDS011;51056;50.330;7.914;2023-07-20T11:55:35;4.97;;;1.08;;
64643;SDS011;51056;50.330;7.914;2023-07-20T11:58:44;3.30;;;0.90;;
64643;SDS011;51056;50.330;7.914;2023-07-20T12:01:49;3.22;;;0.98;;
64643;SDS011;51056;50.330;7.914;2023-07-20T12:04:54;2.80;;;0.82;;
64643;SDS011;51056;50.330;7.914;2023-07-20T12:08:00;2.63;;;0.90;;
64643;SDS011;51056;50.330;7.914;2023-07-20T12:11:11;2.90;;;0.93;;
64643;SDS011;51056;50.330;7.914;2023-07-20T12:14:16;4.18;;;1.00;;
64643;SDS011;51056;50.330;7.914;2023-07-20T12:21:03;2.65;;;0.80;;
64643;SDS011;51056;50.330;7.914;2023-07-20T12:24:10;5.13;;;1.20;;
64643;SDS011;51056;50.330;7.914;2023-07-20T12:27:16;3.47;;;1.40;;
64643;SDS011;51056;50.330;7.914;2023-07-20T12:30:20;2.47;;;0.85;;
64643;SDS011;51056;50.330;7.914;2023-07-20T12:33:26;2.95;;;1.08;;
64643;SDS011;51056;50.330;7.914;2023-07-20T12:36:30;3.08;;;1.05;;
64643;SDS011;51056;50.330;7.914;2023-07-20T12:39:38;1.80;;;0.70;;
64643;SDS011;51056;50.330;7.914;2023-07-20T12:42:44;5.72;;;1.00;;
64643;SDS011;51056;50.330;7.914;2023-07-20T12:45:47;2.97;;;0.90;;
64643;SDS011;51056;50.330;7.914;2023-07-20T12:48:53;3.33;;;0.90;;
64643;SDS011;51056;50.330;7.914;2023-07-20T12:51:57;4.50;;;0.90;;
64643;SDS011;51056;50.330;7.914;2023-07-20T12:55:05;3.72;;;1.20;;
64643;SDS011;51056;50.330;7.914;2023-07-20T12:58:11;5.45;;;1.08;;
64643;SDS011;51056;50.330;7.914;2023-07-20T13:01:15;3.58;;;1.05;;
64643;SDS011;51056;50.330;7.914;2023-07-20T13:04:19;2.75;;;0.90;;
64643;SDS011;51056;50.330;7.914;2023-07-20T13:07:35;3.20;;;0.98;;
64643;SDS011;51056;50.330;7.914;2023-07-20T13:14:17;4.65;;;1.10;;
64643;SDS011;51056;50.330;7.914;2023-07-20T13:17:25;4.60;;;1.05;;
64643;SDS011;51056;50.330;7.914;2023-07-20T13:20:30;3.67;;;1.55;;
64643;SDS011;51056;50.330;7.914;2023-07-20T13:23:33;5.93;;;0.85;;
64643;SDS011;51056;50.330;7.914;2023-07-20T13:26:36;4.95;;;1.10;;
64643;SDS011;51056;50.330;7.914;2023-07-20T13:29:41;3.25;;;1.20;;
64643;SDS011;51056;50.330;7.914;2023-07-20T13:32:46;4.20;;;1.17;;
64643;SDS011;51056;50.330;7.914;2023-07-20T13:35:52;3.30;;;1.00;;
64643;SDS011;51056;50.330;7.914;2023-07-20T13:38:56;3.78;;;1.25;;
64643;SDS011;51056;50.330;7.914;2023-07-20T13:42:01;2.28;;;1.10;;
64643;SDS011;51056;50.330;7.914;2023-07-20T13:45:09;4.18;;;1.20;;
64643;SDS011;51056;50.330;7.914;2023-07-20T13:48:14;3.35;;;1.17;;
64643;SDS011;51056;50.330;7.914;2023-07-20T13:51:30;3.92;;;1.17;;
64643;SDS011;51056;50.330;7.914;2023-07-20T13:54:33;4.03;;;0.98;;
64643;SDS011;51056;50.330;7.914;2023-07-20T13:57:37;3.67;;;0.98;;
64643;SDS011;51056;50.330;7.914;2023-07-20T14:00:46;2.55;;;0.85;;
64643;SDS011;51056;50.330;7.914;2023-07-20T14:09:13;6.22;;;1.08;;
64643;SDS011;51056;50.330;7.914;2023-07-20T14:12:17;2.97;;;1.08;;
64643;SDS011;51056;50.330;7.914;2023-07-20T14:15:20;2.53;;;1.00;;
64643;SDS011;51056;50.330;7.914;2023-07-20T14:18:29;4.53;;;1.70;;
64643;SDS011;51056;50.330;7.914;2023-07-20T14:21:33;3.50;;;1.23;;
64643;SDS011;51056;50.330;7.914;2023-07-20T14:25:07;3.58;;;1.13;;
64643;SDS011;51056;50.330;7.914;2023-07-20T14:28:11;4.18;;;1.00;;
64643;SDS011;51056;50.330;7.914;2023-07-20T14:31:18;5.85;;;1.27;;
64643;SDS011;51056;50.330;7.914;2023-07-20T14:34:22;3.08;;;0.98;;
64643;SDS011;51056;50.330;7.914;2023-07-20T14:37:26;3.03;;;1.38;;
64643;SDS011;51056;50.330;7.914;2023-07-20T14:40:30;4.07;;;1.10;;
64643;SDS011;51056;50.330;7.914;2023-07-20T14:43:33;3.25;;;1.10;;
64643;SDS011;51056;50.330;7.914;2023-07-20T14:46:36;2.20;;;1.05;;
64643;SDS011;51056;50.330;7.914;2023-07-20T14:49:40;4.30;;;1.05;;
64643;SDS011;51056;50.330;7.914;2023-07-20T14:53:04;5.93;;;1.10;;
64643;SDS011;51056;50.330;7.914;2023-07-20T14:56:08;3.60;;;0.80;;
64643;SDS011;51056;50.330;7.914;2023-07-20T14:59:12;10.95;;;2.00;;
64643;SDS011;51056;50.330;7.914;2023-07-20T15:02:18;38.88;;;5.82;;
64643;SDS011;51056;50.330;7.914;2023-07-20T15:05:22;3.03;;;1.25;;
64643;SDS011;51056;50.330;7.914;2023-07-20T15:08:27;10.25;;;1.98;;
64643;SDS011;51056;50.330;7.914;2023-07-20T15:11:31;3.92;;;0.90;;
64643;SDS011;51056;50.330;7.914;2023-07-20T15:14:41;2.22;;;0.90;;
64643;SDS011;51056;50.330;7.914;2023-07-20T15:17:46;7.85;;;1.00;;
64643;SDS011;51056;50.330;7.914;2023-07-20T15:20:50;2.58;;;0.82;;
64643;SDS011;51056;50.330;7.914;2023-07-20T15:23:59;1.98;;;0.80;;
64643;SDS011;51056;50.330;7.914;2023-07-20T15:27:03;2.85;;;0.85;;
64643;SDS011;51056;50.330;7.914;2023-07-20T15:30:07;2.00;;;0.95;;
64643;SDS011;51056;50.330;7.914;2023-07-20T15:33:10;4.47;;;1.20;;
64643;SDS011;51056;50.330;7.914;2023-07-20T15:36:14;4.55;;;0.75;;
64643;SDS011;51056;50.330;7.914;2023-07-20T15:39:20;2.33;;;0.75;;
64643;SDS011;51056;50.330;7.914;2023-07-20T15:42:23;2.60;;;0.77;;
64643;SDS011;51056;50.330;7.914;2023-07-20T15:45:27;4.40;;;0.70;;
64643;SDS011;51056;50.330;7.914;2023-07-20T15:48:33;4.38;;;1.00;;
64643;SDS011;51056;50.330;7.914;2023-07-20T15:51:36;3.13;;;0.90;;
64643;SDS011;51056;50.330;7.914;2023-07-20T15:54:41;3.65;;;1.02;;
64643;SDS011;51056;50.330;7.914;2023-07-20T15:57:44;2.90;;;1.05;;
64643;SDS011;51056;50.330;7.914;2023-07-20T16:00:52;2.85;;;1.08;;
64643;SDS011;51056;50.330;7.914;2023-07-20T16:03:58;2.75;;;0.85;;
64643;SDS011;51056;50.330;7.914;2023-07-20T16:07:01;3.40;;;1.00;;
64643;SDS011;51056;50.330;7.914;2023-07-20T16:10:05;2.47;;;1.13;;
64643;SDS011;51056;50.330;7.914;2023-07-20T16:13:12;3.63;;;0.90;;
64643;SDS011;51056;50.330;7.914;2023-07-20T16:16:15;3.38;;;1.08;;
64643;SDS011;51056;50.330;7.914;2023-07-20T16:19:21;2.60;;;0.80;;
64643;SDS011;51056;50.330;7.914;2023-07-20T16:22:25;2.80;;;1.10;;
64643;SDS011;51056;50.330;7.914;2023-07-20T16:25:29;4.18;;;0.80;;
64643;SDS011;51056;50.330;7.914;2023-07-20T16:28:34;2.30;;;0.88;;
64643;SDS011;51056;50.330;7.914;2023-07-20T16:31:38;2.67;;;1.05;;
64643;SDS011;51056;50.330;7.914;2023-07-20T16:34:43;4.72;;;1.00;;
64643;SDS011;51056;50.330;7.914;2023-07-20T16:37:46;2.00;;;0.70;;
64643;SDS011;51056;50.330;7.914;2023-07-20T16:40:55;3.38;;;1.00;;
64643;SDS011;51056;50.330;7.914;2023-07-20T16:44:01;4.70;;;1.08;;
64643;SDS011;51056;50.330;7.914;2023-07-20T16:47:06;8.98;;;2.63;;
64643;SDS011;51056;50.330;7.914;2023-07-20T16:50:12;6.05;;;1.05;;
64643;SDS011;51056;50.330;7.914;2023-07-20T16:53:17;3.80;;;1.20;;
64643;SDS011;51056;50.330;7.914;2023-07-20T16:56:26;2.00;;;0.90;;
64643;SDS011;51056;50.330;7.914;2023-07-20T16:59:31;3.95;;;0.70;;
64643;SDS011;51056;50.330;7.914;2023-07-20T17:02:36;3.05;;;0.95;;
64643;SDS011;51056;50.330;7.914;2023-07-20T17:05:43;2.33;;;0.88;;
64643;SDS011;51056;50.330;7.914;2023-07-20T17:08:48;4.20;;;1.10;;
64643;SDS011;51056;50.330;7.914;2023-07-20T17:11:55;3.22;;;0.90;;
64643;SDS011;51056;50.330;7.914;2023-07-20T17:15:03;2.83;;;0.80;;
64643;SDS011;51056;50.330;7.914;2023-07-20T17:18:18;3.40;;;0.88;;
64643;SDS011;51056;50.330;7.914;2023-07-20T17:21:22;5.70;;;1.05;;
64643;SDS011;51056;50.330;7.914;2023-07-20T17:24:28;6.55;;;1.30;;
64643;SDS011;51056;50.330;7.914;2023-07-20T17:27:34;2.60;;;1.10;;
64643;SDS011;51056;50.330;7.914;2023-07-20T17:30:39;4.90;;;1.10;;
64643;SDS011;51056;50.330;7.914;2023-07-20T17:34:29;5.47;;;1.10;;
64643;SDS011;51056;50.330;7.914;2023-07-20T17:37:22;3.88;;;0.93;;
64643;SDS011;51056;50.330;7.914;2023-07-20T17:48:40;2.72;;;0.88;;
64643;SDS011;51056;50.330;7.914;2023-07-20T17:51:47;2.55;;;0.88;;
64643;SDS011;51056;50.330;7.914;2023-07-20T17:54:50;2.88;;;1.13;;
64643;SDS011;51056;50.330;7.914;2023-07-20T17:57:53;4.72;;;0.85;;
64643;SDS011;51056;50.330;7.914;2023-07-20T18:00:59;2.70;;;1.10;;
64643;SDS011;51056;50.330;7.914;2023-07-20T18:04:08;2.13;;;1.15;;
64643;SDS011;51056;50.330;7.914;2023-07-20T18:07:11;8.45;;;2.28;;
64643;SDS011;51056;50.330;7.914;2023-07-20T18:10:16;3.08;;;0.95;;
64643;SDS011;51056;50.330;7.914;2023-07-20T18:13:22;4.60;;;1.17;;
64643;SDS011;51056;50.330;7.914;2023-07-20T18:16:26;3.33;;;1.25;;
64643;SDS011;51056;50.330;7.914;2023-07-20T18:19:36;4.20;;;1.98;;
64643;SDS011;51056;50.330;7.914;2023-07-20T18:23:07;8.18;;;1.55;;
64643;SDS011;51056;50.330;7.914;2023-07-20T18:26:12;3.38;;;1.13;;
64643;SDS011;51056;50.330;7.914;2023-07-20T18:29:18;4.57;;;1.38;;
64643;SDS011;51056;50.330;7.914;2023-07-20T18:32:21;5.18;;;1.30;;
64643;SDS011;51056;50.330;7.914;2023-07-20T18:35:25;3.08;;;1.10;;
64643;SDS011;51056;50.330;7.914;2023-07-20T18:38:34;3.05;;;1.67;;
64643;SDS011;51056;50.330;7.914;2023-07-20T18:41:39;4.55;;;1.13;;
64643;SDS011;51056;50.330;7.914;2023-07-20T18:44:45;2.75;;;1.10;;
64643;SDS011;51056;50.330;7.914;2023-07-20T18:47:54;2.00;;;0.95;;
64643;SDS011;51056;50.330;7.914;2023-07-20T18:51:00;6.18;;;1.48;;
64643;SDS011;51056;50.330;7.914;2023-07-20T18:54:12;6.68;;;1.38;;
64643;SDS011;51056;50.330;7.914;2023-07-20T18:57:19;4.65;;;0.93;;
64643;SDS011;51056;50.330;7.914;2023-07-20T19:00:23;4.82;;;1.00;;
64643;SDS011;51056;50.330;7.914;2023-07-20T19:03:45;3.00;;;1.20;;
64643;SDS011;51056;50.330;7.914;2023-07-20T19:06:55;2.40;;;1.02;;
64643;SDS011;51056;50.330;7.914;2023-07-20T19:10:25;4.70;;;1.00;;
64643;SDS011;51056;50.330;7.914;2023-07-20T19:13:32;2.47;;;1.10;;
64643;SDS011;51056;50.330;7.914;2023-07-20T19:16:36;3.45;;;0.98;;
64643;SDS011;51056;50.330;7.914;2023-07-20T19:19:39;4.13;;;0.90;;
64643;SDS011;51056;50.330;7.914;2023-07-20T19:22:43;6.00;;;1.40;;
64643;SDS011;51056;50.330;7.914;2023-07-20T19:25:46;4.00;;;1.30;;
64643;SDS011;51056;50.330;7.914;2023-07-20T19:28:49;3.58;;;1.30;;
64643;SDS011;51056;50.330;7.914;2023-07-20T19:31:59;2.58;;;1.10;;
64643;SDS011;51056;50.330;7.914;2023-07-20T19:35:09;3.65;;;1.35;;
64643;SDS011;51056;50.330;7.914;2023-07-20T19:38:13;2.85;;;1.10;;
64643;SDS011;51056;50.330;7.914;2023-07-20T19:41:30;1.80;;;1.08;;
64643;SDS011;51056;50.330;7.914;2023-07-20T19:44:33;4.00;;;1.17;;
64643;SDS011;51056;50.330;7.914;2023-07-20T19:47:36;3.67;;;1.13;;
64643;SDS011;51056;50.330;7.914;2023-07-20T19:50:40;6.30;;;1.02;;
64643;SDS011;51056;50.330;7.914;2023-07-20T19:53:50;10.32;;;1.55;;